createdAt,value
2023-04-02T02:45:29.638Z,1.95
2023-04-02T02:55:09.583Z,1.50
2023-04-02T02:58:11.188Z,1.40
2023-04-02T03:00:49.821Z,1.20
2023-04-02T03:03:24.164Z,1.10
2023-04-02T03:06:10.639Z,1.67
2023-04-02T03:09:05.877Z,2.22
2023-04-02T03:11:44.634Z,1.38
2023-04-02T03:14:24.639Z,1.40
2023-04-02T03:17:05.166Z,1.10
2023-04-02T03:19:47.663Z,6.68
2023-04-02T03:22:41.246Z,4.63
2023-04-02T03:25:47.214Z,0.88
2023-04-02T03:28:22.328Z,0.85
2023-04-02T03:31:24.175Z,0.80
2023-04-02T03:33:58.431Z,0.70
2023-04-02T03:36:36.608Z,0.75
2023-04-02T03:39:11.972Z,0.80
2023-04-02T03:41:52.821Z,0.60
2023-04-02T03:44:39.691Z,0.77
2023-04-02T03:47:20.046Z,0.80
2023-04-02T03:50:01.781Z,0.67
2023-04-02T03:52:32.492Z,0.80
2023-04-02T03:55:11.099Z,0.63
2023-04-02T03:57:45.255Z,0.60
2023-04-02T04:00:31.000Z,0.70
2023-04-02T04:03:17.358Z,0.90
2023-04-02T04:06:09.163Z,0.60
2023-04-02T04:08:53.021Z,0.77
2023-04-02T04:11:32.748Z,0.63
2023-04-02T04:14:15.267Z,0.70
2023-04-02T04:17:05.838Z,0.90
2023-04-02T04:20:09.827Z,0.77
2023-04-02T04:22:39.064Z,0.90
2023-04-02T04:25:24.095Z,0.73
2023-04-02T04:28:14.014Z,0.60
2023-04-02T04:31:00.958Z,0.80
2023-04-02T04:33:40.900Z,0.70
2023-04-02T04:36:36.278Z,0.80
2023-04-02T04:39:19.197Z,0.90
2023-04-02T04:41:53.248Z,0.88
2023-04-02T04:44:51.370Z,0.73
2023-04-02T04:47:43.344Z,0.70
2023-04-02T04:50:33.174Z,0.82
2023-04-02T04:53:15.685Z,0.90
2023-04-02T04:55:49.058Z,0.90
2023-04-02T04:58:29.060Z,0.70
2023-04-02T05:01:29.477Z,0.80
2023-04-02T05:04:21.321Z,0.90
2023-04-02T05:06:56.117Z,0.73
2023-04-02T05:09:37.523Z,0.98
2023-04-02T05:12:25.999Z,0.75
2023-04-02T05:15:04.253Z,0.93
2023-04-02T05:17:39.553Z,1.08
2023-04-02T05:20:36.092Z,1.30
2023-04-02T05:23:16.367Z,1.02
2023-04-02T05:26:10.897Z,1.00
2023-04-02T05:28:44.831Z,0.90
2023-04-02T05:31:20.904Z,0.90
2023-04-02T05:33:51.326Z,1.20
2023-04-02T05:36:26.698Z,1.00
2023-04-02T05:39:00.212Z,1.30
2023-04-02T05:41:44.189Z,1.33
2023-04-02T05:44:44.035Z,1.30
2023-04-02T05:47:28.622Z,1.30
2023-04-02T05:50:17.913Z,1.40
2023-04-02T05:53:04.852Z,1.50
2023-04-02T05:55:43.761Z,1.25
2023-04-02T05:58:35.466Z,1.67
2023-04-02T06:01:22.246Z,1.40
2023-04-02T06:04:05.115Z,1.38
2023-04-02T06:06:46.397Z,1.40
2023-04-02T06:09:32.870Z,1.45
2023-04-02T06:12:52.788Z,1.40
2023-04-02T06:15:25.299Z,1.60
2023-04-02T06:18:21.752Z,1.77
2023-04-02T06:20:54.151Z,1.75
2023-04-02T06:23:33.840Z,1.60
2023-04-02T06:26:06.586Z,1.70
2023-04-02T06:28:55.084Z,1.58
2023-04-02T06:32:10.202Z,1.70
2023-04-02T06:34:45.236Z,2.10
2023-04-02T06:37:30.368Z,2.35
2023-04-02T06:40:36.720Z,2.08
2023-04-02T06:43:41.431Z,2.25
2023-04-02T06:46:52.432Z,1.80
2023-04-02T06:49:30.096Z,2.40
2023-04-02T06:52:06.304Z,2.33
2023-04-02T06:54:36.236Z,2.28
2023-04-02T06:57:12.034Z,2.60
2023-04-02T06:59:44.337Z,2.50
2023-04-02T07:02:36.826Z,2.13
2023-04-02T07:05:10.941Z,2.60
2023-04-02T07:07:44.972Z,2.70
2023-04-02T07:10:15.114Z,2.50
2023-04-02T07:12:44.577Z,2.45
2023-04-02T07:15:18.607Z,2.72
2023-04-02T07:17:48.483Z,2.87
2023-04-02T07:20:34.001Z,2.40
2023-04-02T07:23:07.154Z,2.88
2023-04-02T07:25:36.477Z,2.38
2023-04-02T07:28:07.234Z,3.65
2023-04-02T07:30:37.392Z,2.88
2023-04-02T07:33:06.866Z,2.47
2023-04-02T07:35:36.979Z,2.42
2023-04-02T07:38:06.462Z,4.53
2023-04-02T07:40:35.916Z,3.17
2023-04-02T07:43:05.737Z,3.95
2023-04-02T07:45:35.020Z,3.10
2023-04-02T07:48:12.672Z,2.72
2023-04-02T07:50:41.764Z,2.88
2023-04-02T07:53:28.856Z,2.67
2023-04-02T07:56:00.515Z,2.90
2023-04-02T07:58:33.512Z,3.83
2023-04-02T08:01:04.555Z,3.17
2023-04-02T08:03:33.758Z,3.00
2023-04-02T08:06:02.758Z,4.15
2023-04-02T08:08:31.947Z,4.25
2023-04-02T08:11:01.513Z,2.78
2023-04-02T08:13:31.527Z,3.00
2023-04-02T08:16:02.550Z,2.92
2023-04-02T08:18:31.923Z,2.70
2023-04-02T08:21:02.354Z,3.90
2023-04-02T08:23:32.799Z,3.13
2023-04-02T08:26:02.332Z,3.30
2023-04-02T08:28:32.172Z,3.28
2023-04-02T08:31:02.240Z,3.67
2023-04-02T08:33:32.969Z,3.30
2023-04-02T08:36:03.973Z,3.63
2023-04-02T08:38:33.188Z,3.95
2023-04-02T08:41:06.220Z,3.20
2023-04-02T08:43:54.871Z,2.80
2023-04-02T08:46:52.258Z,3.40
2023-04-02T08:49:53.352Z,3.30
2023-04-02T08:52:32.273Z,3.58
2023-04-02T08:55:03.575Z,3.72
2023-04-02T08:58:19.751Z,3.70
2023-04-02T09:00:52.674Z,3.40
2023-04-02T09:03:30.799Z,3.80
2023-04-02T09:06:04.150Z,3.60
2023-04-02T09:08:34.616Z,3.38
2023-04-02T09:11:07.284Z,3.57
2023-04-02T09:13:44.946Z,3.70
2023-04-02T09:16:24.075Z,3.53
2023-04-02T09:18:55.106Z,4.05
2023-04-02T09:21:46.702Z,3.38
2023-04-02T09:24:15.995Z,3.80
2023-04-02T09:26:44.629Z,3.60
2023-04-02T09:29:15.218Z,4.20
2023-04-02T09:32:00.121Z,3.20
2023-04-02T09:34:31.923Z,3.75
2023-04-02T09:37:26.803Z,4.60
2023-04-02T09:40:17.623Z,3.58
2023-04-02T09:42:48.324Z,4.45
2023-04-02T09:45:25.811Z,5.45
2023-04-02T09:47:57.264Z,4.88
2023-04-02T09:50:33.248Z,4.40
2023-04-02T09:53:42.422Z,5.13
2023-04-02T09:56:24.050Z,7.03
2023-04-02T09:59:16.842Z,8.07
2023-04-02T10:01:52.653Z,9.40
2023-04-02T10:04:45.829Z,15.98
2023-04-02T10:07:39.178Z,13.57
2023-04-02T10:10:29.527Z,11.30
2023-04-02T10:13:49.811Z,10.48
2023-04-02T10:16:21.009Z,10.80
2023-04-02T10:19:03.678Z,12.48
2023-04-02T10:21:45.615Z,11.55
2023-04-02T10:24:18.602Z,11.45
2023-04-02T10:27:03.996Z,12.48
2023-04-02T10:30:15.594Z,13.20
2023-04-02T10:32:53.827Z,13.50
2023-04-02T10:35:35.392Z,13.83
2023-04-02T10:38:11.513Z,11.73
2023-04-02T10:40:46.711Z,10.48
2023-04-02T10:43:41.744Z,10.63
2023-04-02T10:46:45.647Z,11.60
2023-04-02T10:49:43.043Z,12.05
2023-04-02T10:52:17.874Z,12.05
2023-04-02T10:55:15.929Z,15.18
2023-04-02T10:57:47.262Z,11.18
2023-04-02T11:00:36.093Z,11.53
2023-04-02T11:03:15.057Z,12.27
2023-04-02T11:05:47.768Z,12.68
2023-04-02T11:08:42.236Z,12.77
2023-04-02T11:11:20.339Z,12.55
2023-04-02T11:13:52.801Z,12.80
2023-04-02T11:16:23.039Z,13.60
2023-04-02T11:19:17.405Z,13.68
2023-04-02T11:21:58.575Z,13.73
2023-04-02T11:24:39.618Z,14.80
2023-04-02T11:27:15.802Z,15.30
2023-04-02T11:30:01.091Z,14.88
2023-04-02T11:32:50.718Z,14.20
2023-04-02T11:35:33.259Z,13.15
2023-04-02T11:38:12.399Z,14.55
2023-04-02T11:40:59.615Z,14.10
2023-04-02T11:43:35.283Z,15.15
2023-04-02T11:46:06.006Z,14.48
2023-04-02T11:48:37.756Z,14.27
2023-04-02T11:51:23.379Z,15.38
2023-04-02T11:53:55.024Z,16.77
2023-04-02T11:56:45.656Z,18.02
2023-04-02T11:59:39.470Z,16.80
2023-04-02T12:02:22.932Z,17.20
2023-04-02T12:05:10.125Z,17.30
2023-04-02T12:07:58.096Z,17.40
2023-04-02T12:10:35.662Z,17.08
2023-04-02T12:13:04.990Z,15.80
2023-04-02T12:15:42.796Z,16.95
2023-04-02T12:18:18.066Z,15.30
2023-04-02T12:20:54.386Z,17.60
2023-04-02T12:23:41.733Z,17.55
2023-04-02T12:26:31.120Z,17.13
2023-04-02T12:29:28.311Z,15.05
2023-04-02T12:31:59.656Z,14.73
2023-04-02T12:34:31.581Z,14.98
2023-04-02T12:37:06.922Z,15.73
2023-04-02T12:39:37.585Z,18.55
2023-04-02T12:42:08.003Z,17.45
2023-04-02T12:44:37.292Z,23.23
2023-04-02T12:47:07.497Z,27.83
2023-04-02T12:49:39.578Z,17.07
2023-04-02T12:52:15.972Z,15.02
2023-04-02T12:55:00.336Z,15.55
2023-04-02T12:57:32.746Z,13.23
2023-04-02T13:00:29.114Z,11.77
2023-04-02T13:03:30.350Z,13.88
